Time;durP1;ratioP1;P1;durP2;ratioP2;P2;SDS_P1;SDS_P2;PMS_P1;PMS_P2;Temp;Humidity;BMP_temperature;BMP_pressure;BME280_temperature;BME280_humidity;BME280_pressure;Samples;Min_cycle;Max_cycle;Signal;HPM_P1;HPM_P2
2022/05/26 00:02:25;;;;;;;5.57;5.17;;;13.90;1.00;;;;;;5028542;28;20183;-50
2022/05/26 00:04:50;;;;;;;6.20;5.70;;;13.80;1.00;;;;;;5031648;28;20189;-51
2022/05/26 00:07:16;;;;;;;6.13;5.53;;;13.80;1.00;;;;;;5028722;28;20530;-53
2022/05/26 00:09:42;;;;;;;5.53;5.13;;;13.80;1.00;;;;;;5032283;28;20221;-54
2022/05/26 00:12:11;;;;;;;6.37;5.87;;;13.80;1.00;;;;;;5030193;28;20183;-51
2022/05/26 00:14:38;;;;;;;6.00;5.60;;;13.80;1.00;;;;;;5028979;28;20457;-53
2022/05/26 00:17:04;;;;;;;5.40;5.00;;;13.80;1.00;;;;;;5036239;28;21407;-54
2022/05/26 00:19:30;;;;;;;5.77;5.37;;;13.80;1.00;;;;;;5030227;28;20448;-52
2022/05/26 00:21:55;;;;;;;5.83;5.30;;;13.80;1.00;;;;;;5029927;28;20186;-53
2022/05/26 00:24:21;;;;;;;5.30;4.90;;;13.80;1.00;;;;;;5036642;28;20600;-52
2022/05/26 00:26:48;;;;;;;5.13;4.73;;;13.90;1.00;;;;;;5030280;28;20191;-50
2022/05/26 00:29:14;;;;;;;5.67;5.27;;;13.90;1.00;;;;;;5030951;28;20959;-53
2022/05/26 00:31:39;;;;;;;5.57;4.97;;;13.90;1.00;;;;;;5031162;28;20488;-53
2022/05/26 00:34:05;;;;;;;5.60;5.20;;;13.90;1.00;;;;;;5030010;28;20437;-55
2022/05/26 00:36:43;;;;;;;5.80;5.30;;;13.90;1.00;;;;;;5028551;28;20266;-53
2022/05/26 00:39:12;;;;;;;5.43;5.03;;;13.90;1.00;;;;;;5030085;28;20186;-56
2022/05/26 00:41:47;;;;;;;6.73;6.10;;;13.90;1.00;;;;;;5028738;28;20893;-52
2022/05/26 00:44:13;;;;;;;5.60;5.20;;;13.80;1.00;;;;;;5030199;28;20444;-54
2022/05/26 00:46:53;;;;;;;5.40;4.90;;;13.80;1.00;;;;;;5035222;28;20465;-53
2022/05/26 00:49:28;;;;;;;5.53;5.03;;;13.70;1.00;;;;;;5029834;28;20501;-53
2022/05/26 00:51:55;;;;;;;5.47;4.97;;;13.70;1.00;;;;;;5029306;28;20471;-55
2022/05/26 00:54:24;;;;;;;5.30;5.00;;;13.80;99.90;;;;;;5027894;28;20545;-58
2022/05/26 00:57:04;;;;;;;5.30;4.90;;;13.70;99.90;;;;;;5029963;28;20469;-54
2022/05/26 00:59:42;;;;;;;5.20;4.80;;;13.60;99.90;;;;;;5028673;28;20469;-55
2022/05/26 01:02:09;;;;;;;5.60;5.17;;;13.60;99.90;;;;;;5029939;28;20421;-54
2022/05/26 01:04:49;;;;;;;4.97;4.67;;;13.60;99.90;;;;;;5027315;28;20449;-53
2022/05/26 01:07:21;;;;;;;4.83;4.43;;;13.50;99.90;;;;;;5027905;28;20449;-52
2022/05/26 01:09:46;;;;;;;5.13;4.73;;;13.50;99.90;;;;;;5032182;28;20473;-50
2022/05/26 01:12:12;;;;;;;5.17;4.77;;;13.50;1.00;;;;;;5030166;28;20426;-55
2022/05/26 01:14:48;;;;;;;5.50;5.10;;;13.40;99.90;;;;;;5030203;28;20193;-54
2022/05/26 01:17:26;;;;;;;5.20;4.90;;;13.40;1.00;;;;;;5027189;28;20486;-52
2022/05/26 01:20:30;;;;;;;5.50;5.10;;;13.30;1.00;;;;;;5033872;28;20806;-51
2022/05/26 01:23:30;;;;;;;4.80;4.50;;;13.30;1.00;;;;;;5028492;28;20448;-52
2022/05/26 01:26:07;;;;;;;5.13;4.70;;;13.30;99.90;;;;;;5029864;28;20429;-49
2022/05/26 01:28:59;;;;;;;4.60;4.30;;;13.20;1.00;;;;;;5031930;28;20460;-53
2022/05/26 01:31:28;;;;;;;4.60;4.30;;;13.10;1.00;;;;;;5014922;28;20429;-49
2022/05/26 01:34:17;;;;;;;4.93;4.60;;;13.10;99.90;;;;;;5029698;28;20426;-51
2022/05/26 01:37:09;;;;;;;4.67;4.37;;;13.10;1.00;;;;;;5016181;28;20500;-56
2022/05/26 01:40:09;;;;;;;4.97;4.50;;;13.10;1.00;;;;;;5028524;28;20434;-52
2022/05/26 01:42:44;;;;;;;5.43;5.03;;;13.00;1.00;;;;;;5032111;28;20436;-55
2022/05/26 01:45:30;;;;;;;4.90;4.60;;;13.00;99.90;;;;;;5034730;28;20516;-53
2022/05/26 01:48:16;;;;;;;4.50;4.20;;;13.00;1.00;;;;;;5028328;28;20445;-52
2022/05/26 01:51:00;;;;;;;4.67;4.37;;;13.00;1.00;;;;;;5022974;28;20463;-55
2022/05/26 01:53:35;;;;;;;4.93;4.63;;;13.10;1.00;;;;;;5027086;28;21006;-51
2022/05/26 01:56:15;;;;;;;4.80;4.50;;;13.10;1.00;;;;;;5028365;28;21493;-55
2022/05/26 01:58:45;;;;;;;5.00;4.50;;;13.10;1.00;;;;;;5028441;28;20503;-55
2022/05/26 02:01:14;;;;;;;4.87;4.57;;;13.10;1.00;;;;;;5026806;28;20437;-55
2022/05/26 02:03:43;;;;;;;4.73;4.20;;;13.20;1.00;;;;;;5027821;28;20460;-54
2022/05/26 02:06:32;;;;;;;4.50;4.20;;;13.20;1.00;;;;;;5029198;28;20425;-55
2022/05/26 02:09:13;;;;;;;4.60;4.30;;;13.20;1.00;;;;;;5034452;28;20581;-56
2022/05/26 02:11:55;;;;;;;4.93;3.80;;;13.30;1.00;;;;;;5028214;28;20437;-55
2022/05/26 02:14:29;;;;;;;4.70;4.40;;;13.30;1.00;;;;;;5028380;28;20480;-55
2022/05/26 02:17:09;;;;;;;4.50;4.20;;;13.40;1.00;;;;;;5033979;28;20441;-54
2022/05/26 02:19:41;;;;;;;4.40;4.10;;;13.40;1.00;;;;;;5028053;28;20475;-56
2022/05/26 02:22:23;;;;;;;5.90;4.27;;;13.40;1.00;;;;;;5029001;28;20529;-55
2022/05/26 02:25:11;;;;;;;4.10;3.90;;;13.50;1.00;;;;;;5027329;28;20507;-52
2022/05/26 02:27:38;;;;;;;4.40;4.10;;;13.50;1.00;;;;;;5021850;28;20438;-54
2022/05/26 02:30:06;;;;;;;4.33;4.07;;;13.60;1.00;;;;;;5027650;28;20477;-56
2022/05/26 02:32:38;;;;;;;4.03;3.73;;;13.60;99.90;;;;;;5029370;28;20837;-55
2022/05/26 02:35:12;;;;;;;4.30;4.00;;;13.70;99.90;;;;;;5027886;28;20924;-52
2022/05/26 02:37:40;;;;;;;3.80;3.60;;;13.70;99.90;;;;;;5041915;28;20425;-54
2022/05/26 02:40:07;;;;;;;4.30;4.00;;;13.70;99.90;;;;;;5026557;28;20451;-56
2022/05/26 02:42:33;;;;;;;4.20;3.80;;;13.80;99.90;;;;;;5028364;28;20511;-54
2022/05/26 02:44:59;;;;;;;4.00;3.60;;;13.90;1.00;;;;;;5027276;28;20430;-55
2022/05/26 02:47:37;;;;;;;4.30;4.10;;;13.90;29.50;;;;;;5027926;28;20895;-54
2022/05/26 02:50:03;;;;;;;4.10;3.80;;;13.90;1.00;;;;;;5032027;28;20465;-51
2022/05/26 02:52:53;;;;;;;4.03;3.83;;;13.90;1.00;;;;;;5036407;28;20571;-51
2022/05/26 02:55:44;;;;;;;4.50;4.20;;;13.90;1.00;;;;;;5020107;28;20183;-54
2022/05/26 02:58:35;;;;;;;4.20;4.00;;;13.90;1.00;;;;;;5036632;28;21308;-53
2022/05/26 03:01:21;;;;;;;4.40;4.10;;;13.90;1.00;;;;;;5032343;28;20754;-56
2022/05/26 03:04:06;;;;;;;4.33;4.03;;;13.90;1.00;;;;;;5030308;28;20512;-55
2022/05/26 03:06:40;;;;;;;4.33;4.13;;;13.90;1.00;;;;;;5032107;28;20631;-50
2022/05/26 03:09:07;;;;;;;4.23;3.90;;;13.80;99.90;;;;;;5030709;28;20461;-53
2022/05/26 03:11:47;;;;;;;4.17;3.97;;;13.90;1.00;;;;;;5030581;28;20461;-56
2022/05/26 03:14:14;;;;;;;4.80;4.50;;;13.90;1.00;;;;;;5021582;28;20417;-55
2022/05/26 03:16:40;;;;;;;4.07;3.87;;;13.90;99.90;;;;;;5030900;28;20818;-52
2022/05/26 03:19:06;;;;;;;4.23;3.80;;;13.90;1.00;;;;;;5031494;28;20441;-53
2022/05/26 03:21:32;;;;;;;4.10;3.80;;;13.90;5.50;;;;;;5031694;28;20451;-54
2022/05/26 03:23:57;;;;;;;3.97;3.77;;;13.90;99.90;;;;;;5030475;28;20179;-54
2022/05/26 03:26:23;;;;;;;4.23;4.03;;;13.80;1.00;;;;;;5031831;28;20183;-49
2022/05/26 03:28:48;;;;;;;4.20;3.90;;;13.70;1.00;;;;;;5030261;28;20218;-52
2022/05/26 03:31:14;;;;;;;4.20;3.90;;;13.70;90.20;;;;;;5031973;28;20242;-50
2022/05/26 03:41:53;;;;;;;3.97;3.77;;;13.80;99.90;;;;;;5032006;28;20460;-52
2022/05/26 03:44:19;;;;;;;4.40;4.10;;;13.80;1.00;;;;;;5038985;28;20432;-56
2022/05/26 03:46:45;;;;;;;4.10;3.90;;;13.80;1.00;;;;;;5030224;28;20442;-54
2022/05/26 03:49:10;;;;;;;4.23;3.93;;;13.80;1.00;;;;;;5030034;28;20833;-54
2022/05/26 03:51:36;;;;;;;4.50;3.70;;;13.80;99.90;;;;;;5031769;28;20625;-54
2022/05/26 03:54:01;;;;;;;3.87;3.67;;;13.80;1.00;;;;;;5028804;28;20195;-54
2022/05/26 03:56:27;;;;;;;4.07;3.80;;;13.80;1.00;;;;;;5031674;28;20269;-52
2022/05/26 03:58:52;;;;;;;3.73;3.43;;;13.90;1.00;;;;;;5029597;28;20219;-54
2022/05/26 04:01:19;;;;;;;4.40;4.10;;;13.90;30.50;;;;;;5031607;28;20182;-52
2022/05/26 04:03:45;;;;;;;4.07;3.77;;;13.90;99.90;;;;;;5029981;28;20261;-53
2022/05/26 04:06:10;;;;;;;3.90;3.70;;;14.00;99.90;;;;;;5031648;28;20413;-55
2022/05/26 04:08:36;;;;;;;4.10;3.90;;;14.20;1.00;;;;;;5028997;28;20225;-55
2022/05/26 04:11:01;;;;;;;3.97;3.67;;;14.20;1.00;;;;;;5031289;28;20206;-55
2022/05/26 04:13:30;;;;;;;3.83;3.63;;;14.30;1.00;;;;;;5026622;28;20185;-56
2022/05/26 04:15:56;;;;;;;3.97;3.77;;;14.40;99.90;;;;;;5017246;28;20229;-54
2022/05/26 04:18:21;;;;;;;3.87;3.67;;;14.50;1.00;;;;;;5027688;28;20429;-55
2022/05/26 04:20:47;;;;;;;4.47;4.07;;;14.60;99.90;;;;;;5033460;28;20178;-56
2022/05/26 04:23:12;;;;;;;3.90;3.70;;;14.60;1.00;;;;;;5038456;28;20184;-54
2022/05/26 04:25:38;;;;;;;3.90;3.67;;;14.70;99.90;;;;;;5030184;28;20191;-53
2022/05/26 04:28:04;;;;;;;3.80;3.60;;;14.80;1.00;;;;;;5030100;28;20183;-57
2022/05/26 04:30:30;;;;;;;3.87;3.67;;;14.80;99.90;;;;;;5030743;28;20935;-56
2022/05/26 04:32:56;;;;;;;3.90;3.60;;;14.90;99.90;;;;;;5030678;28;20633;-55
2022/05/26 04:35:22;;;;;;;4.00;3.80;;;15.10;99.90;;;;;;5029467;28;20484;-56
2022/05/26 04:37:48;;;;;;;5.20;3.87;;;15.30;1.00;;;;;;5030848;28;20462;-55
2022/05/26 04:40:13;;;;;;;3.97;3.77;;;15.40;1.00;;;;;;5031261;28;20221;-57
2022/05/26 04:42:39;;;;;;;4.03;3.73;;;15.50;99.90;;;;;;5031001;28;20433;-55
2022/05/26 04:45:08;;;;;;;4.10;3.80;;;15.70;89.30;;;;;;5031330;28;20257;-57
2022/05/26 04:47:33;;;;;;;4.10;3.77;;;15.90;1.00;;;;;;5030568;28;21252;-55
2022/05/26 04:49:59;;;;;;;4.77;4.27;;;16.00;1.00;;;;;;5028655;28;20472;-55
2022/05/26 04:52:25;;;;;;;4.10;3.90;;;16.10;1.00;;;;;;5028895;28;20653;-57
2022/05/26 04:54:54;;;;;;;4.30;4.10;;;16.30;1.00;;;;;;5027968;28;20543;-54
2022/05/26 04:57:23;;;;;;;4.27;4.07;;;16.50;1.00;;;;;;5030199;28;20476;-57
2022/05/26 04:59:50;;;;;;;4.43;4.17;;;16.50;1.00;;;;;;5027169;28;20442;-54
2022/05/26 05:02:18;;;;;;;4.57;4.27;;;16.70;1.00;;;;;;5028078;28;20576;-52
2022/05/26 05:04:46;;;;;;;4.70;4.40;;;16.70;1.00;;;;;;5029713;28;20440;-57
2022/05/26 05:07:12;;;;;;;4.40;4.20;;;16.80;1.00;;;;;;5040618;28;20462;-56
2022/05/26 05:09:39;;;;;;;4.40;4.20;;;16.90;1.00;;;;;;5028637;28;20466;-54
2022/05/26 05:12:06;;;;;;;4.40;4.10;;;17.00;1.00;;;;;;5028258;28;20192;-56
2022/05/26 05:14:43;;;;;;;4.77;4.47;;;17.10;1.00;;;;;;5029058;28;21157;-55
2022/05/26 05:17:10;;;;;;;4.03;3.83;;;17.10;1.00;;;;;;5029602;28;20426;-56
2022/05/26 05:19:35;;;;;;;4.30;4.10;;;17.10;1.00;;;;;;5032281;28;20436;-53
2022/05/26 05:22:29;;;;;;;4.10;3.90;;;17.20;1.00;;;;;;5040414;28;20438;-56
2022/05/26 05:25:10;;;;;;;4.20;4.00;;;17.40;1.00;;;;;;5024740;28;20527;-57
2022/05/26 05:27:49;;;;;;;4.33;4.03;;;17.30;1.00;;;;;;5028985;28;20522;-56
2022/05/26 05:30:39;;;;;;;4.03;3.83;;;17.30;1.00;;;;;;5028765;28;20467;-55
2022/05/26 05:33:14;;;;;;;4.40;4.10;;;17.30;1.00;;;;;;5035209;28;20450;-53
2022/05/26 05:35:47;;;;;;;3.80;3.70;;;17.40;99.90;;;;;;5028698;28;20925;-55
2022/05/26 05:38:15;;;;;;;4.30;4.00;;;17.50;99.90;;;;;;5028453;28;20435;-57
2022/05/26 05:40:40;;;;;;;4.30;4.10;;;17.60;99.90;;;;;;5038501;28;21022;-57
2022/05/26 05:43:06;;;;;;;4.30;4.00;;;17.70;99.90;;;;;;5028745;28;20531;-52
2022/05/26 05:45:31;;;;;;;3.90;3.70;;;17.80;99.90;;;;;;5022028;28;20189;-57
2022/05/26 05:47:57;;;;;;;4.47;4.17;;;17.80;99.90;;;;;;5029491;28;20217;-51
2022/05/26 05:50:23;;;;;;;4.10;3.90;;;17.90;99.90;;;;;;5024782;28;20210;-53
2022/05/26 05:52:48;;;;;;;3.80;3.60;;;17.90;99.90;;;;;;5031656;28;20571;-57
2022/05/26 05:55:14;;;;;;;4.13;3.93;;;17.90;99.90;;;;;;5028041;28;20202;-57
2022/05/26 05:57:39;;;;;;;4.20;4.00;;;17.90;99.90;;;;;;5032261;28;20306;-53
2022/05/26 06:00:06;;;;;;;4.60;4.20;;;17.90;99.90;;;;;;5027040;28;20615;-55
2022/05/26 06:02:32;;;;;;;4.43;4.23;;;17.90;99.90;;;;;;5019098;28;20652;-57
2022/05/26 06:04:57;;;;;;;4.10;3.80;;;18.00;99.90;;;;;;5019031;28;20454;-57
2022/05/26 06:07:23;;;;;;;4.33;4.03;;;18.10;99.90;;;;;;5022249;28;20853;-54
2022/05/26 06:09:50;;;;;;;4.40;4.20;;;18.20;99.90;;;;;;5023155;28;20210;-55
2022/05/26 06:12:16;;;;;;;4.63;4.33;;;18.40;99.90;;;;;;5026456;28;20193;-57
2022/05/26 06:14:42;;;;;;;4.27;4.07;;;18.20;99.90;;;;;;5029277;28;21048;-57
2022/05/26 06:17:10;;;;;;;4.40;4.10;;;18.20;99.90;;;;;;5028386;28;20436;-54
2022/05/26 06:19:38;;;;;;;4.27;4.00;;;18.30;99.90;;;;;;5028971;28;20499;-58
2022/05/26 06:22:18;;;;;;;3.70;3.50;;;18.20;99.90;;;;;;5038016;28;20437;-55
2022/05/26 06:24:45;;;;;;;6.50;4.43;;;18.20;99.90;;;;;;5036098;28;20933;-58
2022/05/26 06:29:58;;;;;;;4.10;3.90;;;18.10;99.90;;;;;;5029544;28;20520;-56
2022/05/26 06:37:55;;;;;;;3.90;3.70;;;17.90;99.90;;;;;;5035793;28;20446;-57
2022/05/26 06:40:21;;;;;;;4.27;3.97;;;17.90;99.90;;;;;;5028577;28;20423;-59
2022/05/26 06:42:47;;;;;;;4.10;3.90;;;17.90;99.90;;;;;;5023330;28;20636;-58
2022/05/26 06:45:15;;;;;;;3.90;3.70;;;18.00;99.90;;;;;;5023941;28;20456;-57
2022/05/26 06:47:41;;;;;;;4.17;3.97;;;18.10;99.90;;;;;;5021425;28;20445;-55
2022/05/26 06:50:08;;;;;;;4.20;4.00;;;18.20;99.90;;;;;;5025943;28;20792;-58
2022/05/26 06:52:33;;;;;;;4.30;4.00;;;18.30;99.90;;;;;;5025152;28;20923;-58
2022/05/26 06:55:01;;;;;;;4.30;4.10;;;18.30;99.90;;;;;;5024513;28;20504;-58
2022/05/26 06:57:27;;;;;;;4.03;3.83;;;18.40;99.90;;;;;;5029424;28;20230;-56
2022/05/26 06:59:52;;;;;;;4.20;4.00;;;18.50;99.90;;;;;;5025812;28;20801;-56
2022/05/26 07:02:18;;;;;;;4.27;4.03;;;18.60;99.90;;;;;;5031871;28;20183;-56
2022/05/26 07:04:43;;;;;;;3.87;3.57;;;18.80;99.90;;;;;;5031640;28;20674;-56
2022/05/26 07:07:12;;;;;;;4.00;3.80;;;18.80;99.90;;;;;;5026474;28;20200;-55
2022/05/26 07:09:37;;;;;;;3.87;3.57;;;18.80;99.90;;;;;;5036322;28;20209;-54
2022/05/26 07:12:03;;;;;;;4.30;4.10;;;18.90;99.90;;;;;;5026970;28;20491;-53
2022/05/26 07:14:29;;;;;;;4.10;3.90;;;18.80;99.90;;;;;;5031258;28;20193;-53
2022/05/26 07:16:55;;;;;;;4.20;4.00;;;19.10;99.90;;;;;;5026339;28;20191;-56
2022/05/26 07:19:20;;;;;;;4.43;4.23;;;19.10;99.90;;;;;;5025345;28;20183;-56
2022/05/26 07:21:48;;;;;;;4.17;3.87;;;19.20;99.90;;;;;;5025568;28;20191;-56
2022/05/26 07:24:19;;;;;;;4.10;3.90;;;19.30;99.90;;;;;;5026325;28;20256;-57
2022/05/26 07:26:46;;;;;;;3.80;3.60;;;19.40;99.90;;;;;;5025901;28;20515;-57
2022/05/26 07:29:12;;;;;;;4.30;3.87;;;19.30;99.90;;;;;;5023423;28;20462;-56
2022/05/26 07:31:38;;;;;;;4.17;3.97;;;19.10;99.90;;;;;;5015233;28;20431;-57
2022/05/26 07:34:03;;;;;;;5.57;3.67;;;19.20;99.90;;;;;;5017251;28;20643;-56
2022/05/26 07:42:03;;;;;;;4.00;3.80;;;19.40;99.90;;;;;;5021427;28;20477;-56
2022/05/26 07:44:31;;;;;;;3.53;3.33;;;19.50;99.90;;;;;;5013173;28;20428;-58
2022/05/26 07:46:57;;;;;;;3.87;3.67;;;19.50;99.90;;;;;;5010654;28;20540;-52
2022/05/26 07:49:23;;;;;;;4.07;3.70;;;19.50;99.90;;;;;;5020906;28;20470;-57
2022/05/26 07:51:48;;;;;;;4.03;3.73;;;19.50;99.90;;;;;;5028514;28;20442;-59
2022/05/26 07:54:14;;;;;;;3.80;3.50;;;19.60;99.90;;;;;;5023985;28;20440;-55
2022/05/26 07:56:40;;;;;;;4.37;4.17;;;19.50;99.90;;;;;;5023852;28;20222;-51
2022/05/26 07:59:07;;;;;;;4.33;4.10;;;19.50;99.90;;;;;;5026780;28;20270;-53
2022/05/26 08:01:33;;;;;;;4.03;3.73;;;19.70;99.90;;;;;;5025618;28;20447;-57
2022/05/26 08:03:58;;;;;;;3.90;3.70;;;19.90;99.90;;;;;;5029464;28;20417;-57
2022/05/26 08:06:24;;;;;;;4.17;3.97;;;20.00;99.90;;;;;;5023319;28;21001;-59
2022/05/26 08:08:50;;;;;;;4.03;3.73;;;20.00;99.90;;;;;;5030085;28;20576;-57
2022/05/26 08:11:15;;;;;;;3.83;3.60;;;20.10;99.90;;;;;;5025290;28;20484;-56
2022/05/26 08:13:41;;;;;;;3.37;3.27;;;20.40;99.90;;;;;;5026302;28;20183;-54
2022/05/26 08:16:07;;;;;;;4.00;3.80;;;20.60;99.90;;;;;;5027585;28;20546;-56
2022/05/26 08:18:33;;;;;;;3.30;3.20;;;20.70;99.90;;;;;;5028891;28;20215;-57
2022/05/26 08:21:14;;;;;;;4.00;3.80;;;20.60;99.90;;;;;;5032041;28;20209;-57
2022/05/26 08:23:40;;;;;;;3.83;3.63;;;20.50;99.90;;;;;;5027677;28;21193;-57
2022/05/26 08:26:06;;;;;;;3.93;3.53;;;20.60;99.90;;;;;;5040640;28;20421;-54
2022/05/26 08:28:32;;;;;;;3.57;3.47;;;20.60;99.90;;;;;;5039072;28;22338;-55
2022/05/26 08:30:59;;;;;;;4.03;3.83;;;20.70;99.90;;;;;;5027138;28;20441;-56
2022/05/26 08:33:26;;;;;;;4.27;4.07;;;20.50;99.90;;;;;;5029382;28;20568;-57
2022/05/26 08:36:07;;;;;;;3.97;3.77;;;20.60;99.90;;;;;;5023960;28;20446;-57
2022/05/26 08:38:32;;;;;;;3.70;3.50;;;20.70;99.90;;;;;;5027263;28;20851;-57
2022/05/26 08:40:59;;;;;;;3.67;3.53;;;20.70;99.90;;;;;;5026400;28;20432;-56
2022/05/26 08:43:38;;;;;;;3.67;3.53;;;20.90;99.90;;;;;;5027047;28;20449;-56
2022/05/26 08:46:08;;;;;;;3.67;3.47;;;20.70;99.90;;;;;;5026590;28;20443;-57
2022/05/26 08:49:01;;;;;;;3.67;3.57;;;21.00;99.90;;;;;;5021806;28;20956;-58
2022/05/26 08:51:51;;;;;;;3.53;3.43;;;21.20;99.90;;;;;;5034364;28;20438;-57
2022/05/26 08:54:26;;;;;;;3.70;3.50;;;20.90;99.90;;;;;;5029961;28;20422;-53
2022/05/26 08:56:55;;;;;;;3.70;3.60;;;20.80;99.90;;;;;;5029616;28;20515;-57
2022/05/26 08:59:26;;;;;;;3.87;3.57;;;21.00;99.90;;;;;;5030414;28;20837;-58
2022/05/26 09:01:54;;;;;;;3.97;3.77;;;21.20;99.90;;;;;;5027971;28;20489;-58
2022/05/26 09:04:22;;;;;;;3.90;3.70;;;21.30;99.90;;;;;;5030365;28;20521;-59
2022/05/26 09:15:14;;;;;;;3.83;3.63;;;20.70;99.90;;;;;;5028799;28;20495;-58
2022/05/26 09:17:39;;;;;;;3.27;3.10;;;20.70;99.90;;;;;;5024602;28;20909;-59
2022/05/26 09:20:36;;;;;;;3.50;3.30;;;20.80;99.90;;;;;;5029263;28;20971;-57
2022/05/26 09:23:24;;;;;;;3.70;3.50;;;21.00;99.90;;;;;;5028008;28;20200;-55
2022/05/26 09:25:52;;;;;;;3.90;3.80;;;21.00;99.90;;;;;;5030266;28;20806;-57
2022/05/26 09:28:49;;;;;;;4.20;3.90;;;20.70;99.90;;;;;;5027795;28;20478;-59
2022/05/26 09:31:24;;;;;;;3.90;3.70;;;21.00;99.90;;;;;;5015683;28;20449;-59
2022/05/26 09:34:15;;;;;;;3.90;3.70;;;21.60;99.90;;;;;;5029446;28;20418;-58
2022/05/26 09:36:52;;;;;;;3.90;3.30;;;22.20;99.90;;;;;;5027917;28;20444;-58
2022/05/26 09:39:39;;;;;;;3.67;3.40;;;22.80;99.90;;;;;;5028423;28;20433;-57
2022/05/26 09:42:06;;;;;;;3.50;3.40;;;23.10;99.90;;;;;;5023755;28;20914;-58
2022/05/26 09:44:44;;;;;;;3.87;3.67;;;22.90;99.90;;;;;;5028009;28;20448;-58
2022/05/26 09:47:28;;;;;;;3.90;3.70;;;23.00;99.90;;;;;;5035718;28;20440;-58
2022/05/26 09:49:57;;;;;;;3.60;3.40;;;23.50;99.90;;;;;;5026053;28;20878;-59
2022/05/26 09:52:28;;;;;;;3.60;3.50;;;23.50;99.90;;;;;;5029969;28;20418;-56
2022/05/26 09:55:30;;;;;;;3.83;3.67;;;23.10;99.90;;;;;;5028817;28;20416;-58
2022/05/26 09:58:08;;;;;;;3.90;3.60;;;23.30;99.90;;;;;;5016025;28;20496;-57
2022/05/26 10:00:46;;;;;;;3.47;3.37;;;23.10;99.90;;;;;;5026372;28;20925;-58
2022/05/26 10:03:17;;;;;;;3.67;3.47;;;22.90;99.90;;;;;;5029456;28;20428;-56
2022/05/26 10:06:05;;;;;;;3.53;3.40;;;22.90;99.90;;;;;;5028644;28;20425;-58
2022/05/26 10:09:10;;;;;;;4.10;3.90;;;23.00;99.90;;;;;;5029559;28;20899;-58
2022/05/26 10:11:53;;;;;;;3.50;3.20;;;22.90;99.90;;;;;;5017350;28;21170;-58
2022/05/26 10:14:28;;;;;;;4.03;3.73;;;23.20;99.90;;;;;;5028796;28;20428;-58
2022/05/26 10:17:19;;;;;;;3.80;3.60;;;23.90;99.90;;;;;;5028061;28;20433;-57
2022/05/26 10:20:18;;;;;;;3.27;3.17;;;24.30;99.90;;;;;;5026517;28;20541;-57
2022/05/26 10:23:13;;;;;;;3.50;3.30;;;24.50;99.90;;;;;;5027508;28;20429;-57
2022/05/26 10:26:09;;;;;;;3.43;3.27;;;24.60;99.90;;;;;;5009509;28;20407;-58
2022/05/26 10:28:56;;;;;;;3.50;3.30;;;25.90;99.90;;;;;;5025196;28;20582;-58
2022/05/26 10:31:35;;;;;;;3.50;3.30;;;26.60;99.90;;;;;;5027689;28;20459;-59
2022/05/26 10:34:31;;;;;;;3.97;3.77;;;26.40;99.90;;;;;;5029383;28;20467;-56
2022/05/26 10:37:02;;;;;;;3.60;3.50;;;26.50;99.90;;;;;;5020032;28;20495;-57
2022/05/26 10:39:37;;;;;;;3.57;3.37;;;26.50;99.90;;;;;;5009538;28;20444;-57
2022/05/26 10:42:23;;;;;;;3.30;3.20;;;26.40;99.90;;;;;;5017117;28;20842;-57
2022/05/26 10:45:07;;;;;;;3.80;3.70;;;26.60;99.90;;;;;;5029195;28;20477;-59
2022/05/26 10:47:50;;;;;;;3.27;3.17;;;25.10;99.90;;;;;;5020157;28;20434;-57
2022/05/26 10:50:28;;;;;;;3.30;3.10;;;24.90;99.90;;;;;;5036245;28;20469;-56
2022/05/26 10:53:23;;;;;;;3.53;3.23;;;25.10;99.90;;;;;;5032978;28;20479;-57
2022/05/26 10:55:51;;;;;;;4.03;3.83;;;25.60;99.90;;;;;;5028596;28;20474;-57
2022/05/26 10:58:37;;;;;;;3.13;2.93;;;25.70;99.90;;;;;;5020460;28;20446;-59
2022/05/26 11:01:14;;;;;;;3.60;3.43;;;25.20;99.90;;;;;;5028639;28;20422;-57
2022/05/26 11:03:51;;;;;;;3.80;3.57;;;25.30;99.90;;;;;;5028136;28;20989;-58
2022/05/26 11:06:25;;;;;;;3.80;3.63;;;24.80;99.90;;;;;;5029066;28;20435;-58
2022/05/26 11:09:16;;;;;;;3.40;3.20;;;24.50;99.90;;;;;;5022060;28;20544;-57
2022/05/26 11:11:51;;;;;;;3.20;3.10;;;24.70;99.90;;;;;;5032497;28;20426;-58
2022/05/26 11:17:35;;;;;;;3.53;3.40;;;24.80;99.90;;;;;;5015352;28;20430;-58
2022/05/26 11:20:04;;;;;;;3.47;3.27;;;24.40;99.90;;;;;;5027657;28;20947;-58
2022/05/26 11:22:30;;;;;;;3.30;3.10;;;24.00;99.90;;;;;;5030273;28;20540;-58
2022/05/26 11:24:58;;;;;;;3.50;3.40;;;23.60;99.90;;;;;;5032412;28;20421;-58
2022/05/26 11:27:46;;;;;;;3.87;3.37;;;23.50;99.90;;;;;;5032543;28;20418;-58
2022/05/26 11:36:21;;;;;;;3.80;3.70;;;23.70;99.90;;;;;;5022718;28;20424;-59
2022/05/26 11:38:49;;;;;;;3.50;3.40;;;23.70;99.90;;;;;;5030912;28;20418;-58
2022/05/26 11:41:27;;;;;;;3.47;3.27;;;23.10;99.90;;;;;;5013940;28;20441;-53
2022/05/26 11:44:04;;;;;;;3.50;3.40;;;23.20;99.90;;;;;;5013568;28;20410;-52
2022/05/26 11:46:42;;;;;;;3.60;3.50;;;23.30;99.90;;;;;;5031200;28;20432;-55
2022/05/26 11:49:10;;;;;;;3.77;3.57;;;22.80;99.90;;;;;;5039840;28;20520;-55
2022/05/26 11:51:39;;;;;;;3.20;3.00;;;22.60;99.90;;;;;;5043188;28;20435;-51
2022/05/26 11:54:07;;;;;;;3.60;3.50;;;22.20;99.90;;;;;;5042548;28;20556;-53
2022/05/26 11:56:32;;;;;;;4.03;3.87;;;21.90;99.90;;;;;;5032533;28;20486;-54
2022/05/26 11:59:17;;;;;;;4.10;3.90;;;21.80;99.90;;;;;;5033343;28;20939;-54
2022/05/26 12:01:45;;;;;;;3.73;3.53;;;22.10;99.90;;;;;;5032157;28;20196;-52
2022/05/26 12:04:32;;;;;;;3.73;3.43;;;22.50;99.90;;;;;;5033050;28;20423;-55
2022/05/26 12:06:59;;;;;;;3.57;3.37;;;22.70;99.90;;;;;;5031061;28;20824;-52
2022/05/26 12:09:43;;;;;;;3.97;3.73;;;22.60;99.90;;;;;;5032026;28;20465;-53
2022/05/26 12:12:18;;;;;;;3.07;2.87;;;22.50;99.90;;;;;;5032561;28;20904;-54
2022/05/26 12:14:46;;;;;;;3.80;3.60;;;22.60;99.90;;;;;;5032747;28;20419;-53
2022/05/26 12:17:30;;;;;;;3.70;3.60;;;22.50;99.90;;;;;;5031053;28;20437;-52
2022/05/26 12:20:25;;;;;;;3.67;3.57;;;22.60;99.90;;;;;;5017412;28;20467;-55
2022/05/26 12:22:51;;;;;;;3.50;3.40;;;22.80;99.90;;;;;;5035157;28;20479;-54
2022/05/26 12:25:19;;;;;;;3.87;3.70;;;23.20;99.90;;;;;;5029110;28;20472;-51
2022/05/26 12:27:54;;;;;;;3.17;3.07;;;23.40;99.90;;;;;;5031813;28;20448;-54
2022/05/26 12:30:35;;;;;;;4.30;4.00;;;23.80;99.90;;;;;;5025080;28;20495;-54
2022/05/26 12:33:22;;;;;;;3.77;3.57;;;23.80;99.90;;;;;;5029534;28;20753;-56
2022/05/26 12:36:16;;;;;;;3.20;3.00;;;23.80;99.90;;;;;;5027865;28;20515;-55
2022/05/26 12:38:49;;;;;;;3.87;3.70;;;23.50;99.90;;;;;;5031388;28;20564;-56
2022/05/26 12:41:45;;;;;;;3.90;3.63;;;23.00;99.90;;;;;;5040189;28;20418;-51
2022/05/26 12:44:28;;;;;;;3.90;3.33;;;23.70;99.90;;;;;;5018474;28;20649;-56
2022/05/26 12:47:05;;;;;;;3.70;3.50;;;25.10;99.90;;;;;;5023605;28;20501;-54
2022/05/26 12:50:07;;;;;;;3.87;3.60;;;25.90;99.90;;;;;;5029498;28;20471;-56
2022/05/26 12:52:40;;;;;;;4.23;4.03;;;26.70;99.90;;;;;;5027668;28;20765;-55
2022/05/26 12:55:20;;;;;;;4.33;4.03;;;26.30;99.90;;;;;;5029429;28;20806;-56
2022/05/26 12:57:56;;;;;;;3.80;3.60;;;24.80;99.90;;;;;;5027682;28;20525;-53
2022/05/26 13:00:24;;;;;;;3.90;3.70;;;24.00;99.90;;;;;;5030346;28;20931;-56
2022/05/26 13:02:54;;;;;;;3.97;3.70;;;23.60;99.90;;;;;;5029731;28;20465;-53
2022/05/26 13:05:21;;;;;;;4.23;4.03;;;23.30;99.90;;;;;;5030647;28;20459;-52
2022/05/26 13:07:50;;;;;;;3.70;3.50;;;23.50;99.90;;;;;;5029138;28;20445;-56
2022/05/26 13:10:26;;;;;;;4.13;3.93;;;23.70;99.90;;;;;;5028484;28;20476;-55
2022/05/26 13:12:53;;;;;;;3.13;3.03;;;23.70;99.90;;;;;;5028553;28;20535;-57
2022/05/26 13:15:25;;;;;;;3.43;3.20;;;23.80;99.90;;;;;;5026328;28;20448;-55
2022/05/26 13:17:52;;;;;;;4.20;4.00;;;23.80;99.90;;;;;;5027757;28;20430;-52
2022/05/26 13:20:34;;;;;;;4.10;3.90;;;24.30;99.90;;;;;;5029969;28;20504;-55
2022/05/26 13:23:00;;;;;;;3.50;3.30;;;24.30;99.90;;;;;;5022284;28;20525;-55
2022/05/26 13:25:30;;;;;;;4.40;4.20;;;24.50;99.90;;;;;;5018418;28;20978;-56
2022/05/26 13:28:10;;;;;;;3.77;3.57;;;25.30;99.90;;;;;;5024723;28;20446;-55
2022/05/26 13:33:28;;;;;;;3.77;3.57;;;26.90;99.90;;;;;;5029179;28;20494;-57
2022/05/26 13:36:02;;;;;;;3.90;3.80;;;27.20;99.90;;;;;;5030511;28;20849;-58
2022/05/26 13:38:30;;;;;;;4.00;3.80;;;26.00;99.90;;;;;;5021391;28;20461;-58
2022/05/26 13:40:57;;;;;;;4.13;3.93;;;25.40;99.90;;;;;;5029354;28;20424;-58
2022/05/26 13:43:23;;;;;;;4.30;4.10;;;24.70;99.90;;;;;;5025210;28;20442;-57
2022/05/26 13:45:49;;;;;;;4.17;3.90;;;24.00;99.90;;;;;;5029368;28;20901;-57
2022/05/26 13:48:36;;;;;;;3.90;3.70;;;23.50;99.90;;;;;;5028367;28;20436;-58
2022/05/26 13:51:12;;;;;;;3.80;3.70;;;23.00;99.90;;;;;;5028072;28;20447;-58
2022/05/26 13:53:40;;;;;;;3.73;3.60;;;22.50;99.90;;;;;;5029024;28;20477;-57
2022/05/26 13:56:07;;;;;;;4.20;3.90;;;22.30;99.90;;;;;;5028509;28;20474;-58
2022/05/26 13:58:34;;;;;;;4.03;3.83;;;21.90;99.90;;;;;;5027796;28;20438;-56
2022/05/26 14:01:05;;;;;;;4.30;3.90;;;21.70;99.90;;;;;;5037623;28;21280;-57
2022/05/26 14:03:33;;;;;;;3.50;3.40;;;21.50;99.90;;;;;;5026891;28;21019;-58